Time;durP1;ratioP1;P1;durP2;ratioP2;P2;SDS_P1;SDS_P2;PMS_P1;PMS_P2;Temp;Humidity;BMP_temperature;BMP_pressure;BME280_temperature;BME280_humidity;BME280_pressure;Samples;Min_cycle;Max_cycle;Signal;HPM_P1;HPM_P2
2022/09/01 00:01:40;;;;;;;;;;;20.50;99.90;;;;;;5056315;28;19915;-82
2022/09/01 00:04:07;;;;;;;;;;;20.60;99.90;;;;;;5056662;28;19909;-81
2022/09/01 00:06:33;;;;;;;;;;;20.80;99.90;;;;;;5056112;28;20365;-78
2022/09/01 00:09:00;;;;;;;;;;;20.90;99.90;;;;;;5056178;28;19919;-78
2022/09/01 00:11:26;;;;;;;;;;;20.90;99.90;;;;;;5056032;28;19908;-80
2022/09/01 00:13:53;;;;;;;;;;;20.80;99.90;;;;;;5038059;28;19909;-79
2022/09/01 00:16:19;;;;;;;;;;;20.80;99.90;;;;;;5055969;28;20288;-80
2022/09/01 00:18:48;;;;;;;;;;;20.80;99.90;;;;;;5056165;28;19909;-80
2022/09/01 00:21:14;;;;;;;;;;;20.80;99.90;;;;;;5037917;28;19980;-79
2022/09/01 00:23:40;;;;;;;;;;;20.70;99.90;;;;;;5055992;28;19913;-81
2022/09/01 00:26:06;;;;;;;;;;;20.50;99.90;;;;;;5055786;28;19912;-80
2022/09/01 00:28:32;;;;;;;;;;;20.60;99.90;;;;;;5055698;28;20361;-81
2022/09/01 00:30:58;;;;;;;;;;;20.70;99.90;;;;;;5055676;28;20393;-82
2022/09/01 00:33:23;;;;;;;;;;;20.70;99.90;;;;;;5055666;28;19931;-78
2022/09/01 00:35:49;;;;;;;;;;;20.70;99.90;;;;;;5055629;28;19913;-79
2022/09/01 00:38:14;;;;;;;;;;;20.70;99.90;;;;;;5055724;28;19909;-81
2022/09/01 00:40:40;;;;;;;;;;;20.80;99.90;;;;;;5055615;28;19915;-81
2022/09/01 00:43:35;;;;;;;;;;;20.90;99.90;;;;;;5055408;28;20008;-82
2022/09/01 00:46:01;;;;;;;;;;;21.00;99.90;;;;;;5020555;28;19962;-80
2022/09/01 00:48:27;;;;;;;;;;;20.90;99.90;;;;;;5055311;28;19920;-82
2022/09/01 00:50:53;;;;;;;;;;;20.90;99.90;;;;;;5054749;28;19920;-80
2022/09/01 00:53:18;;;;;;;;;;;20.70;99.90;;;;;;5055152;28;19919;-78
2022/09/01 00:55:44;;;;;;;;;;;20.50;99.90;;;;;;5055511;28;19909;-80
2022/09/01 00:58:11;;;;;;;;;;;20.30;99.90;;;;;;5054723;28;20290;-80
2022/09/01 01:00:39;;;;;;;;;;;20.30;99.90;;;;;;5055117;28;20003;-82
2022/09/01 01:03:14;;;;;;;;;;;20.20;99.90;;;;;;5055664;28;20000;-81
2022/09/01 01:05:44;;;;;;;;;;;20.20;99.90;;;;;;5054952;28;20437;-78
2022/09/01 01:08:10;;;;;;;;;;;20.30;99.90;;;;;;5054925;28;19959;-82
2022/09/01 01:10:38;;;;;;;;;;;20.20;99.90;;;;;;5055419;28;19991;-79
2022/09/01 01:13:12;;;;;;;;;;;20.20;99.90;;;;;;5055086;28;19909;-80
2022/09/01 01:15:42;;;;;;;;;;;20.10;99.90;;;;;;5036929;28;19940;-81
2022/09/01 01:18:14;;;;;;;;;;;20.00;99.90;;;;;;5054772;28;19912;-82
2022/09/01 01:23:29;;;;;;;;;;;19.90;99.90;;;;;;5054802;28;20347;-79
2022/09/01 01:25:57;;;;;;;;;;;20.10;99.90;;;;;;5054924;28;19909;-84
2022/09/01 01:28:23;;;;;;;;;;;20.20;99.90;;;;;;5054547;28;19935;-81
2022/09/01 01:30:54;;;;;;;;;;;20.30;99.90;;;;;;5036580;28;19913;-79
2022/09/01 01:33:21;;;;;;;;;;;20.30;99.90;;;;;;5054702;28;19955;-81
2022/09/01 01:35:49;;;;;;;;;;;20.30;99.90;;;;;;5054511;28;19909;-80
2022/09/01 01:38:15;;;;;;;;;;;20.30;99.90;;;;;;5036523;28;19958;-79
2022/09/01 01:40:41;;;;;;;;;;;20.30;99.90;;;;;;5054514;28;20379;-82
2022/09/01 01:43:06;;;;;;;;;;;20.30;99.90;;;;;;5054332;28;19931;-82
2022/09/01 01:45:32;;;;;;;;;;;20.30;99.90;;;;;;5054236;28;19915;-80
2022/09/01 01:47:59;;;;;;;;;;;20.10;99.90;;;;;;5054203;28;20381;-80
2022/09/01 01:50:28;;;;;;;;;;;20.10;99.90;;;;;;5054047;28;19921;-78
2022/09/01 01:52:56;;;;;;;;;;;20.00;99.90;;;;;;5035752;28;19912;-79
2022/09/01 01:55:25;;;;;;;;;;;20.00;99.90;;;;;;5054251;28;19916;-81
2022/09/01 01:57:52;;;;;;;;;;;20.20;99.90;;;;;;5053947;28;19923;-79
2022/09/01 02:00:19;;;;;;;;;;;19.60;99.90;;;;;;5054041;28;19909;-80
2022/09/01 02:02:51;;;;;;;;;;;19.40;99.90;;;;;;5053989;28;19932;-80
2022/09/01 02:05:23;;;;;;;;;;;19.30;99.90;;;;;;5053929;28;19909;-80
2022/09/01 02:07:58;;;;;;;;;;;19.50;99.90;;;;;;5053989;28;19980;-82
2022/09/01 02:10:25;;;;;;;;;;;19.60;99.90;;;;;;5053827;28;20000;-81
2022/09/01 02:12:51;;;;;;;;;;;19.70;99.90;;;;;;5053967;28;19909;-80
2022/09/01 02:15:17;;;;;;;;;;;19.80;99.90;;;;;;5054007;28;19915;-78
2022/09/01 02:17:44;;;;;;;;;;;19.90;99.90;;;;;;5053771;28;19909;-81
2022/09/01 02:20:12;;;;;;;;;;;19.90;99.90;;;;;;5053836;28;19997;-82
2022/09/01 02:22:38;;;;;;;;;;;19.90;99.90;;;;;;5053706;28;19919;-83
2022/09/01 02:25:04;;;;;;;;;;;19.90;99.90;;;;;;5054029;28;19908;-81
2022/09/01 02:27:32;;;;;;;;;;;20.00;99.90;;;;;;5035714;28;19913;-79
2022/09/01 02:30:00;;;;;;;;;;;20.00;99.90;;;;;;5053831;28;19913;-80
2022/09/01 02:32:25;;;;;;;;;;;19.90;99.90;;;;;;5053636;28;19912;-81
2022/09/01 02:34:52;;;;;;;;;;;19.90;99.90;;;;;;5053561;28;19913;-81
2022/09/01 02:37:24;;;;;;;;;;;20.00;99.90;;;;;;5053513;28;19913;-80
2022/09/01 02:39:52;;;;;;;;;;;20.00;99.90;;;;;;5053591;28;19917;-81
2022/09/01 02:42:21;;;;;;;;;;;19.90;99.90;;;;;;5053552;28;19909;-80
2022/09/01 02:44:46;;;;;;;;;;;19.90;99.90;;;;;;5053582;28;19909;-79
2022/09/01 02:47:12;;;;;;;;;;;19.90;99.90;;;;;;5053604;28;20384;-79
2022/09/01 02:49:39;;;;;;;;;;;19.90;99.90;;;;;;5053213;28;20018;-80
2022/09/01 02:52:05;;;;;;;;;;;19.80;99.90;;;;;;5053592;28;19920;-80
2022/09/01 02:54:31;;;;;;;;;;;19.70;99.90;;;;;;5053529;28;20280;-79
2022/09/01 02:56:57;;;;;;;;;;;19.20;99.90;;;;;;5053514;28;19913;-82
2022/09/01 02:59:25;;;;;;;;;;;19.00;99.90;;;;;;5053396;28;19916;-82
2022/09/01 03:01:52;;;;;;;;;;;19.30;99.90;;;;;;5053659;28;19944;-78
2022/09/01 03:04:18;;;;;;;;;;;19.50;99.90;;;;;;5054556;28;19909;-79
2022/09/01 03:06:44;;;;;;;;;;;19.60;99.90;;;;;;5057348;28;19935;-81
2022/09/01 03:09:14;;;;;;;;;;;19.50;99.90;;;;;;5057218;28;19913;-80
2022/09/01 03:11:41;;;;;;;;;;;19.40;99.90;;;;;;5057155;28;19908;-81
2022/09/01 03:14:07;;;;;;;;;;;19.40;99.90;;;;;;5057179;28;20365;-79
2022/09/01 03:16:33;;;;;;;;;;;19.30;99.90;;;;;;5039210;28;20353;-78
2022/09/01 03:19:02;;;;;;;;;;;19.40;99.90;;;;;;5057036;28;19920;-79
2022/09/01 03:21:28;;;;;;;;;;;19.40;99.90;;;;;;5057000;28;20400;-78
2022/09/01 03:23:53;;;;;;;;;;;19.30;99.90;;;;;;5056942;28;20369;-80
2022/09/01 03:26:20;;;;;;;;;;;19.20;99.90;;;;;;5056957;28;19916;-81
2022/09/01 03:28:47;;;;;;;;;;;19.30;99.90;;;;;;5038923;28;19912;-78
2022/09/01 03:31:13;;;;;;;;;;;19.40;99.90;;;;;;5056875;28;19944;-78
2022/09/01 03:33:38;;;;;;;;;;;19.40;99.90;;;;;;5057030;28;20013;-83
2022/09/01 03:36:04;;;;;;;;;;;19.20;99.90;;;;;;5056759;28;19916;-82
2022/09/01 03:38:30;;;;;;;;;;;19.20;99.90;;;;;;5056678;28;19916;-77
2022/09/01 03:41:01;;;;;;;;;;;19.20;99.90;;;;;;5056646;28;19954;-80
2022/09/01 03:43:31;;;;;;;;;;;19.20;99.90;;;;;;5056767;28;19931;-82
2022/09/01 03:45:59;;;;;;;;;;;19.20;99.90;;;;;;5056774;28;20348;-81
2022/09/01 03:48:27;;;;;;;;;;;19.30;99.90;;;;;;5056559;28;19913;-83
2022/09/01 03:50:54;;;;;;;;;;;19.40;99.90;;;;;;5056050;28;19927;-80
2022/09/01 03:53:21;;;;;;;;;;;19.40;99.90;;;;;;5038588;28;19913;-81
2022/09/01 03:55:48;;;;;;;;;;;19.40;99.90;;;;;;5056318;28;19909;-80
2022/09/01 03:58:17;;;;;;;;;;;19.30;99.90;;;;;;5056290;28;19912;-81
2022/09/01 04:00:45;;;;;;;;;;;19.30;99.90;;;;;;5056283;28;19916;-79
2022/09/01 04:03:15;;;;;;;;;;;19.30;99.90;;;;;;5056630;28;19909;-82
2022/09/01 04:05:42;;;;;;;;;;;19.30;99.90;;;;;;5056579;28;19916;-83
2022/09/01 04:08:10;;;;;;;;;;;18.90;99.90;;;;;;5056072;28;19913;-81
2022/09/01 04:10:40;;;;;;;;;;;18.90;99.90;;;;;;5056178;28;20388;-81
2022/09/01 04:13:10;;;;;;;;;;;19.00;99.90;;;;;;5056191;28;20365;-84
2022/09/01 04:15:36;;;;;;;;;;;19.10;99.90;;;;;;5056006;28;19970;-83
2022/09/01 04:18:19;;;;;;;;;;;19.20;99.90;;;;;;5056118;28;19916;-81
2022/09/01 04:20:49;;;;;;;;;;;19.30;99.90;;;;;;5056012;28;19916;-80
2022/09/01 04:23:19;;;;;;;;;;;19.20;99.90;;;;;;5055921;28;19909;-83
2022/09/01 04:25:48;;;;;;;;;;;19.00;99.90;;;;;;5056030;28;19908;-84
2022/09/01 04:28:21;;;;;;;;;;;18.80;99.90;;;;;;5055709;28;19940;-78
2022/09/01 04:30:49;;;;;;;;;;;18.50;99.90;;;;;;5055808;28;19909;-80
2022/09/01 04:33:16;;;;;;;;;;;18.60;99.90;;;;;;5055533;28;20327;-79
2022/09/01 04:35:41;;;;;;;;;;;18.90;99.90;;;;;;5055994;28;19909;-80
2022/09/01 04:38:07;;;;;;;;;;;19.10;99.90;;;;;;5055825;28;19909;-81
2022/09/01 04:40:39;;;;;;;;;;;19.20;99.90;;;;;;5055538;28;19916;-80
2022/09/01 04:43:05;;;;;;;;;;;19.00;99.90;;;;;;5055460;28;19909;-81
2022/09/01 04:45:31;;;;;;;;;;;19.10;99.90;;;;;;5055609;28;19909;-81
2022/09/01 04:47:59;;;;;;;;;;;19.30;99.90;;;;;;5055641;28;19919;-78
2022/09/01 04:50:29;;;;;;;;;;;19.30;99.90;;;;;;5055249;28;19921;-81
2022/09/01 04:53:01;;;;;;;;;;;19.30;99.90;;;;;;5037827;28;20301;-79
2022/09/01 04:55:28;;;;;;;;;;;19.20;99.90;;;;;;5055611;28;19908;-81
2022/09/01 04:57:56;;;;;;;;;;;19.00;99.90;;;;;;5055447;28;19908;-81
2022/09/01 05:00:23;;;;;;;;;;;19.00;99.90;;;;;;5055175;28;19909;-79
2022/09/01 05:02:53;;;;;;;;;;;19.00;99.90;;;;;;5055342;28;19999;-83
2022/09/01 05:05:19;;;;;;;;;;;19.00;99.90;;;;;;5055618;28;19913;-82
2022/09/01 05:07:45;;;;;;;;;;;19.10;99.90;;;;;;5055168;28;20415;-84
2022/09/01 05:10:11;;;;;;;;;;;19.10;99.90;;;;;;5055014;28;19909;-80
2022/09/01 05:12:37;;;;;;;;;;;19.10;99.90;;;;;;5054956;28;19916;-78
2022/09/01 05:15:08;;;;;;;;;;;19.00;99.90;;;;;;5054845;28;20431;-83
2022/09/01 05:17:36;;;;;;;;;;;18.70;99.90;;;;;;5036712;28;19955;-81
2022/09/01 05:20:02;;;;;;;;;;;18.40;99.90;;;;;;5054756;28;20385;-81
2022/09/01 05:22:30;;;;;;;;;;;18.60;99.90;;;;;;5036778;28;19913;-82
2022/09/01 05:25:10;;;;;;;;;;;18.50;99.90;;;;;;5054534;28;19951;-82
2022/09/01 05:27:38;;;;;;;;;;;18.30;99.90;;;;;;5054011;28;19913;-83
2022/09/01 05:30:07;;;;;;;;;;;18.10;99.90;;;;;;5054570;28;19909;-78
2022/09/01 05:32:36;;;;;;;;;;;18.10;99.90;;;;;;5036488;28;19991;-78
2022/09/01 05:35:07;;;;;;;;;;;18.30;99.90;;;;;;5054394;28;19909;-80
2022/09/01 05:37:38;;;;;;;;;;;18.30;99.90;;;;;;5036562;28;19953;-81
2022/09/01 05:40:05;;;;;;;;;;;18.40;99.90;;;;;;5054405;28;20004;-81
2022/09/01 05:42:31;;;;;;;;;;;18.40;99.90;;;;;;5054431;28;19958;-79
2022/09/01 05:44:57;;;;;;;;;;;18.40;99.90;;;;;;5054196;28;19952;-80
2022/09/01 05:47:25;;;;;;;;;;;18.80;99.90;;;;;;5054120;28;19916;-82
2022/09/01 05:49:52;;;;;;;;;;;19.10;99.90;;;;;;5054206;28;20301;-79
2022/09/01 05:52:24;;;;;;;;;;;19.30;99.90;;;;;;5054183;28;19952;-82
2022/09/01 05:54:50;;;;;;;;;;;19.50;99.90;;;;;;5054258;28;19909;-78
2022/09/01 05:57:16;;;;;;;;;;;19.60;99.90;;;;;;5054034;28;19952;-81
2022/09/01 05:59:42;;;;;;;;;;;19.60;99.90;;;;;;5054050;28;19976;-79
2022/09/01 06:02:08;;;;;;;;;;;19.70;99.90;;;;;;5054257;28;19913;-77
2022/09/01 06:04:34;;;;;;;;;;;19.70;99.90;;;;;;5054516;28;19936;-79
2022/09/01 06:07:00;;;;;;;;;;;19.80;99.90;;;;;;5053904;28;19909;-78
2022/09/01 06:09:26;;;;;;;;;;;19.60;99.90;;;;;;5035881;28;19916;-82
2022/09/01 06:11:54;;;;;;;;;;;19.40;99.90;;;;;;5053843;28;20384;-78
2022/09/01 06:14:19;;;;;;;;;;;19.20;99.90;;;;;;5035938;28;19920;-78
2022/09/01 06:16:46;;;;;;;;;;;19.10;99.90;;;;;;5053781;28;19948;-78
2022/09/01 06:19:11;;;;;;;;;;;19.20;99.90;;;;;;5053658;28;19995;-78
2022/09/01 06:21:38;;;;;;;;;;;19.00;99.90;;;;;;5053729;28;20337;-81
2022/09/01 06:24:05;;;;;;;;;;;18.90;99.90;;;;;;5053519;28;19947;-78
2022/09/01 06:26:34;;;;;;;;;;;18.80;99.90;;;;;;5053947;28;20389;-81
2022/09/01 06:29:08;;;;;;;;;;;19.00;99.90;;;;;;5035729;28;19919;-82
2022/09/01 06:31:37;;;;;;;;;;;19.20;99.90;;;;;;5053632;28;19916;-82
2022/09/01 06:34:05;;;;;;;;;;;19.20;99.90;;;;;;5053828;28;19916;-83
2022/09/01 06:36:35;;;;;;;;;;;18.90;99.90;;;;;;5053609;28;19952;-79
2022/09/01 06:39:01;;;;;;;;;;;18.50;99.90;;;;;;5035517;28;20276;-79
2022/09/01 06:41:27;;;;;;;;;;;18.50;99.90;;;;;;5053556;28;20027;-78
2022/09/01 06:43:53;;;;;;;;;;;18.80;99.90;;;;;;5053317;28;19913;-79
2022/09/01 06:46:20;;;;;;;;;;;18.90;99.90;;;;;;5054053;28;20370;-80
2022/09/01 06:48:46;;;;;;;;;;;19.30;99.90;;;;;;5053614;28;20327;-81
2022/09/01 06:51:13;;;;;;;;;;;19.70;99.90;;;;;;5053653;28;19952;-81
2022/09/01 06:53:40;;;;;;;;;;;19.80;99.90;;;;;;5053657;28;19912;-78
2022/09/01 06:56:08;;;;;;;;;;;20.00;99.90;;;;;;5053423;28;19908;-79
2022/09/01 06:58:34;;;;;;;;;;;20.20;99.90;;;;;;5053400;28;19909;-78
2022/09/01 07:01:04;;;;;;;;;;;20.60;99.90;;;;;;5053374;28;19915;-80
2022/09/01 07:03:30;;;;;;;;;;;20.90;99.90;;;;;;5053556;28;19909;-78
2022/09/01 07:05:57;;;;;;;;;;;21.20;99.90;;;;;;5053831;28;19908;-81
2022/09/01 07:08:23;;;;;;;;;;;21.20;99.90;;;;;;5053219;28;19920;-81
2022/09/01 07:10:50;;;;;;;;;;;21.40;99.90;;;;;;5053434;28;19912;-80
2022/09/01 07:13:22;;;;;;;;;;;21.40;99.90;;;;;;5053406;28;19909;-82
2022/09/01 07:15:52;;;;;;;;;;;21.40;99.90;;;;;;5053318;28;19909;-79
2022/09/01 07:18:23;;;;;;;;;;;21.70;99.90;;;;;;5053267;28;19909;-81
2022/09/01 07:20:50;;;;;;;;;;;21.80;99.90;;;;;;5053161;28;19967;-81
2022/09/01 07:23:16;;;;;;;;;;;21.90;99.90;;;;;;5053350;28;20276;-79
2022/09/01 07:25:42;;;;;;;;;;;21.90;99.90;;;;;;5053229;28;19908;-83
2022/09/01 07:28:09;;;;;;;;;;;22.00;99.90;;;;;;5053021;28;19917;-81
2022/09/01 07:30:39;;;;;;;;;;;22.00;99.90;;;;;;5053025;28;19909;-82
2022/09/01 07:33:10;;;;;;;;;;;21.90;99.90;;;;;;5053192;28;20281;-82
2022/09/01 07:35:36;;;;;;;;;;;21.80;99.90;;;;;;5053273;28;19909;-81
2022/09/01 07:38:04;;;;;;;;;;;21.80;99.90;;;;;;5053002;28;19916;-81
2022/09/01 07:40:30;;;;;;;;;;;21.90;99.90;;;;;;5052908;28;19955;-80
2022/09/01 07:42:56;;;;;;;;;;;21.60;99.90;;;;;;5053111;28;19909;-80
2022/09/01 07:45:24;;;;;;;;;;;21.40;99.90;;;;;;5052815;28;19916;-80
2022/09/01 07:47:49;;;;;;;;;;;21.20;99.90;;;;;;5034941;28;19917;-79
2022/09/01 07:50:15;;;;;;;;;;;21.10;99.90;;;;;;5053136;28;20408;-83
2022/09/01 07:52:48;;;;;;;;;;;21.10;99.90;;;;;;5038492;28;19952;-79
2022/09/01 07:55:15;;;;;;;;;;;21.20;99.90;;;;;;5056624;28;20381;-82
2022/09/01 07:57:41;;;;;;;;;;;21.00;99.90;;;;;;5056599;28;20368;-81
2022/09/01 08:00:09;;;;;;;;;;;21.10;99.90;;;;;;5056375;28;19909;-82
2022/09/01 08:02:37;;;;;;;;;;;21.20;99.90;;;;;;5056443;28;19998;-78
2022/09/01 08:05:08;;;;;;;;;;;21.10;99.90;;;;;;5039106;28;19908;-78
2022/09/01 08:07:34;;;;;;;;;;;21.10;99.90;;;;;;5056269;28;19909;-78
2022/09/01 08:10:00;;;;;;;;;;;21.50;99.90;;;;;;5056133;28;19909;-79
2022/09/01 08:12:26;;;;;;;;;;;21.70;99.90;;;;;;5056113;28;19912;-81
2022/09/01 08:14:52;;;;;;;;;;;21.60;99.90;;;;;;5056177;28;19955;-81
2022/09/01 08:17:18;;;;;;;;;;;21.50;99.90;;;;;;5056320;28;19909;-78
2022/09/01 08:19:45;;;;;;;;;;;21.40;99.90;;;;;;5055995;28;19909;-78
2022/09/01 08:22:11;;;;;;;;;;;21.40;99.90;;;;;;5055913;28;19913;-78
2022/09/01 08:24:37;;;;;;;;;;;21.20;99.90;;;;;;5055808;28;20001;-78
2022/09/01 08:27:03;;;;;;;;;;;21.10;99.90;;;;;;5055794;28;19909;-81
2022/09/01 08:29:29;;;;;;;;;;;20.80;99.90;;;;;;5055641;28;19916;-81
2022/09/01 08:31:54;;;;;;;;;;;20.70;99.90;;;;;;5055643;28;19916;-78
2022/09/01 08:34:20;;;;;;;;;;;20.80;99.90;;;;;;5037719;28;19908;-80
2022/09/01 08:36:45;;;;;;;;;;;21.30;99.90;;;;;;5037752;28;19915;-82
2022/09/01 08:39:11;;;;;;;;;;;21.60;99.90;;;;;;5055706;28;19992;-79
2022/09/01 08:42:12;;;;;;;;;;;22.10;99.90;;;;;;5055624;28;19952;-82
2022/09/01 08:44:45;;;;;;;;;;;22.30;99.90;;;;;;4974980;28;19953;-82
2022/09/01 08:47:12;;;;;;;;;;;22.20;99.90;;;;;;5042812;28;19916;-79
2022/09/01 08:49:39;;;;;;;;;;;22.00;99.90;;;;;;5055083;28;19928;-79
2022/09/01 08:52:06;;;;;;;;;;;22.20;99.90;;;;;;5055401;28;19951;-81
2022/09/01 08:54:38;;;;;;;;;;;22.20;99.90;;;;;;5055263;28;19909;-82
2022/09/01 08:57:18;;;;;;;;;;;22.20;99.90;;;;;;5055279;28;19912;-77
2022/09/01 08:59:44;;;;;;;;;;;22.20;99.90;;;;;;5055116;28;19913;-81
2022/09/01 09:02:20;;;;;;;;;;;22.00;99.90;;;;;;5053947;28;20262;-81
2022/09/01 09:04:49;;;;;;;;;;;21.90;99.90;;;;;;5055919;28;19909;-79
2022/09/01 09:07:20;;;;;;;;;;;22.10;99.90;;;;;;5055128;28;19908;-79
2022/09/01 09:09:51;;;;;;;;;;;22.20;99.90;;;;;;5054985;28;19920;-80
2022/09/01 09:12:26;;;;;;;;;;;22.40;99.90;;;;;;5055318;28;19913;-79
2022/09/01 09:15:02;;;;;;;;;;;23.20;99.90;;;;;;5055015;28;19916;-82
2022/09/01 09:17:30;;;;;;;;;;;23.80;99.90;;;;;;5055997;28;19909;-80
2022/09/01 09:19:56;;;;;;;;;;;23.90;99.90;;;;;;5055238;28;19952;-82
2022/09/01 09:22:22;;;;;;;;;;;24.10;99.90;;;;;;5055131;28;19952;-80
2022/09/01 09:24:54;;;;;;;;;;;24.30;99.90;;;;;;5054780;28;20281;-77
2022/09/01 09:27:27;;;;;;;;;;;24.10;99.90;;;;;;5036654;28;20277;-79
2022/09/01 09:29:54;;;;;;;;;;;24.00;99.90;;;;;;5038733;28;20435;-79
2022/09/01 09:32:23;;;;;;;;;;;23.70;99.90;;;;;;5054521;28;19966;-80
2022/09/01 09:34:50;;;;;;;;;;;23.70;99.90;;;;;;5036603;28;19967;-81
2022/09/01 09:37:24;;;;;;;;;;;23.60;99.90;;;;;;5054477;28;19913;-82
2022/09/01 09:40:08;;;;;;;;;;;23.50;99.90;;;;;;5054429;28;19909;-82
2022/09/01 09:42:38;;;;;;;;;;;23.80;99.90;;;;;;5054658;28;20007;-82
2022/09/01 09:45:04;;;;;;;;;;;24.40;99.90;;;;;;5054121;28;19966;-77
2022/09/01 09:47:36;;;;;;;;;;;26.70;99.90;;;;;;5054188;28;19912;-81
2022/09/01 09:50:13;;;;;;;;;;;27.10;99.90;;;;;;5054168;28;20318;-77
2022/09/01 09:52:39;;;;;;;;;;;26.50;99.90;;;;;;5054108;28;19913;-82
2022/09/01 09:55:17;;;;;;;;;;;25.60;99.90;;;;;;5054346;28;20285;-83
2022/09/01 09:57:43;;;;;;;;;;;24.80;99.90;;;;;;5054185;28;20278;-80
2022/09/01 10:00:23;;;;;;;;;;;24.10;99.90;;;;;;5054065;28;20408;-80
2022/09/01 10:02:57;;;;;;;;;;;23.90;99.90;;;;;;5035907;28;20347;-79
2022/09/01 10:05:43;;;;;;;;;;;24.10;99.90;;;;;;5054635;28;19945;-78
2022/09/01 10:08:11;;;;;;;;;;;24.60;99.90;;;;;;5053791;28;19912;-81
2022/09/01 10:10:43;;;;;;;;;;;25.50;99.90;;;;;;5054371;28;19951;-80
2022/09/01 10:13:16;;;;;;;;;;;26.40;99.90;;;;;;5053833;28;19909;-80
2022/09/01 10:16:15;;;;;;;;;;;26.50;99.90;;;;;;5053928;28;19909;-82
2022/09/01 10:18:46;;;;;;;;;;;26.50;99.90;;;;;;5038331;28;20292;-83
2022/09/01 10:21:17;;;;;;;;;;;25.70;99.90;;;;;;5053760;28;19936;-81
2022/09/01 10:23:42;;;;;;;;;;;25.20;99.90;;;;;;5053784;28;19909;-79
2022/09/01 10:26:17;;;;;;;;;;;24.70;99.90;;;;;;5054104;28;19919;-79
2022/09/01 10:28:50;;;;;;;;;;;24.90;99.90;;;;;;5035666;28;19920;-81
2022/09/01 10:31:16;;;;;;;;;;;25.00;99.90;;;;;;5035401;28;19947;-78
2022/09/01 10:33:42;;;;;;;;;;;24.90;99.90;;;;;;5053521;28;19908;-78
2022/09/01 10:36:07;;;;;;;;;;;24.60;99.90;;;;;;5053876;28;19909;-81
2022/09/01 10:38:33;;;;;;;;;;;24.10;99.90;;;;;;5053564;28;19967;-83
2022/09/01 10:41:09;;;;;;;;;;;24.20;99.90;;;;;;5053724;28;19925;-80
2022/09/01 10:43:42;;;;;;;;;;;24.20;99.90;;;;;;5053594;28;19909;-80
2022/09/01 10:46:08;;;;;;;;;;;24.20;99.90;;;;;;5053537;28;19992;-80
2022/09/01 10:48:35;;;;;;;;;;;24.40;99.90;;;;;;5035437;28;19913;-78
2022/09/01 10:51:21;;;;;;;;;;;24.70;99.90;;;;;;5053478;28;20008;-81
2022/09/01 10:53:48;;;;;;;;;;;25.00;99.90;;;;;;5039371;28;19956;-80
2022/09/01 10:56:32;;;;;;;;;;;25.10;99.90;;;;;;5053320;28;20003;-80
2022/09/01 10:59:16;;;;;;;;;;;25.30;99.90;;;;;;5053597;28;19908;-80
2022/09/01 11:01:44;;;;;;;;;;;25.50;99.90;;;;;;5053350;28;19952;-81
2022/09/01 11:04:11;;;;;;;;;;;26.00;99.90;;;;;;5053350;28;20289;-83
2022/09/01 11:06:40;;;;;;;;;;;27.00;99.90;;;;;;5053891;28;20274;-81
2022/09/01 11:09:07;;;;;;;;;;;27.60;99.90;;;;;;5053185;28;19935;-78
2022/09/01 11:11:38;;;;;;;;;;;28.70;99.70;;;;;;5053447;28;20385;-82
2022/09/01 11:14:15;;;;;;;;;;;29.80;96.60;;;;;;5053224;28;20424;-81
2022/09/01 11:16:42;;;;;;;;;;;31.70;95.00;;;;;;5053247;28;19916;-79
2022/09/01 11:19:34;;;;;;;;;;;32.30;91.80;;;;;;5053173;28;19908;-81
2022/09/01 11:22:29;;;;;;;;;;;34.00;89.00;;;;;;5022277;28;19957;-79
2022/09/01 11:25:09;;;;;;;;;;;34.10;82.30;;;;;;5035907;28;19909;-80
2022/09/01 11:27:47;;;;;;;;;;;34.30;78.50;;;;;;5056953;28;20392;-81
2022/09/01 11:30:16;;;;;;;;;;;33.00;76.70;;;;;;5056911;28;19909;-79
2022/09/01 11:32:44;;;;;;;;;;;31.70;79.70;;;;;;5056947;28;19916;-78
2022/09/01 11:35:17;;;;;;;;;;;32.40;80.60;;;;;;5056796;28;19908;-80
2022/09/01 11:37:47;;;;;;;;;;;31.80;80.10;;;;;;5056836;28;20284;-81
2022/09/01 11:40:18;;;;;;;;;;;32.30;80.70;;;;;;5056897;28;20396;-80
2022/09/01 11:42:44;;;;;;;;;;;36.10;76.70;;;;;;5056876;28;19909;-81
2022/09/01 11:45:17;;;;;;;;;;;36.70;69.90;;;;;;5056618;28;20285;-80
2022/09/01 11:47:49;;;;;;;;;;;35.50;70.80;;;;;;5038589;28;19916;-79
2022/09/01 11:50:19;;;;;;;;;;;33.80;72.00;;;;;;5056370;28;20012;-78
2022/09/01 11:52:52;;;;;;;;;;;31.80;75.90;;;;;;5056415;28;19909;-82
2022/09/01 11:55:27;;;;;;;;;;;30.30;79.30;;;;;;5056590;28;19908;-75
2022/09/01 11:57:53;;;;;;;;;;;30.10;81.80;;;;;;5056664;28;19909;-80
2022/09/01 12:00:24;;;;;;;;;;;30.00;82.70;;;;;;5056389;28;19912;-81
2022/09/01 12:02:51;;;;;;;;;;;30.50;82.20;;;;;;5056477;28;19909;-77
2022/09/01 12:05:27;;;;;;;;;;;30.90;81.90;;;;;;5056860;28;19909;-79
2022/09/01 12:07:54;;;;;;;;;;;31.50;81.30;;;;;;5056723;28;19919;-81
2022/09/01 12:10:25;;;;;;;;;;;31.10;80.00;;;;;;5056210;28;20003;-78
2022/09/01 12:12:59;;;;;;;;;;;30.80;81.00;;;;;;5037998;28;19912;-79
2022/09/01 12:15:26;;;;;;;;;;;30.20;81.90;;;;;;5056191;28;19916;-82
2022/09/01 12:17:52;;;;;;;;;;;30.50;80.80;;;;;;5056019;28;19909;-77
2022/09/01 12:20:18;;;;;;;;;;;30.00;81.20;;;;;;5055996;28;19909;-79
2022/09/01 12:22:44;;;;;;;;;;;30.00;82.30;;;;;;5056046;28;19932;-79
2022/09/01 12:25:17;;;;;;;;;;;30.10;82.90;;;;;;5055945;28;19913;-77
2022/09/01 12:27:42;;;;;;;;;;;30.70;82.50;;;;;;5055851;28;19956;-78
2022/09/01 12:30:08;;;;;;;;;;;31.00;80.80;;;;;;5056026;28;19956;-81
2022/09/01 12:32:34;;;;;;;;;;;32.40;79.60;;;;;;5037871;28;19959;-81
2022/09/01 12:35:02;;;;;;;;;;;33.70;76.60;;;;;;5055790;28;20341;-77
2022/09/01 12:37:28;;;;;;;;;;;36.90;73.80;;;;;;5037596;28;20369;-84
2022/09/01 12:39:56;;;;;;;;;;;40.50;65.30;;;;;;5055558;28;19931;-77
2022/09/01 12:42:29;;;;;;;;;;;40.50;60.00;;;;;;5055786;28;20004;-79
2022/09/01 12:44:57;;;;;;;;;;;41.50;60.50;;;;;;5055513;28;19952;-78
2022/09/01 12:47:32;;;;;;;;;;;40.20;57.80;;;;;;5055501;28;20296;-81
2022/09/01 12:49:58;;;;;;;;;;;37.00;61.30;;;;;;5055230;28;19921;-81
2022/09/01 12:52:25;;;;;;;;;;;38.00;62.50;;;;;;5055376;28;19971;-81
2022/09/01 12:54:57;;;;;;;;;;;38.70;60.50;;;;;;5055493;28;19909;-83
2022/09/01 12:57:28;;;;;;;;;;;40.00;58.40;;;;;;5055291;28;20411;-77
2022/09/01 13:00:09;;;;;;;;;;;38.70;57.60;;;;;;5055279;28;19908;-77
2022/09/01 13:02:37;;;;;;;;;;;35.60;60.90;;;;;;5037401;28;19909;-80
2022/09/01 13:05:18;;;;;;;;;;;33.50;64.60;;;;;;5055558;28;19908;-78
2022/09/01 13:07:43;;;;;;;;;;;32.00;67.50;;;;;;5037171;28;19909;-77
2022/09/01 13:10:09;;;;;;;;;;;32.10;69.60;;;;;;5055471;28;20293;-82
2022/09/01 13:12:40;;;;;;;;;;;32.00;68.50;;;;;;5055228;28;19909;-82
2022/09/01 13:15:05;;;;;;;;;;;31.20;71.00;;;;;;5036748;28;20348;-76
2022/09/01 13:17:34;;;;;;;;;;;30.30;72.20;;;;;;5054999;28;19909;-79
2022/09/01 13:20:00;;;;;;;;;;;29.90;74.30;;;;;;5054852;28;19909;-82
2022/09/01 13:22:25;;;;;;;;;;;29.60;76.10;;;;;;5054818;28;19915;-83
2022/09/01 13:24:51;;;;;;;;;;;29.10;78.70;;;;;;5054726;28;19929;-81
2022/09/01 13:27:16;;;;;;;;;;;28.50;81.70;;;;;;5054737;28;19915;-83
2022/09/01 13:29:42;;;;;;;;;;;;;;;;;;5054575;28;19913;-78
2022/09/01 13:32:08;;;;;;;;;;;;;;;;;;5054707;28;20295;-82
2022/09/01 13:34:34;;;;;;;;;;;;;;;;;;5036658;28;19909;-83
2022/09/01 13:37:00;;;;;;;;;;;;;;;;;;5054922;28;19955;-84
2022/09/01 13:39:26;;;;;;;;;;;;;;;;;;5054499;28;20376;-79
2022/09/01 13:41:52;;;;;;;;;;;;;;;;;;5054993;28;19916;-81
2022/09/01 13:44:18;;;;;;;;;;;;;;;;;;5054308;28;19999;-80
2022/09/01 13:46:44;;;;;;;;;;;;;;;;;;5054550;28;19952;-81
2022/09/01 13:49:10;;;;;;;;;;;;;;;;;;5053296;28;19935;-83
2022/09/01 13:51:37;;;;;;;;;;;;;;;;;;5054530;28;19943;-79
2022/09/01 13:54:03;;;;;;;;;;;;;;;;;;5054208;28;19909;-82
2022/09/01 13:56:29;;;;;;;;;;;;;;;;;;5054239;28;19920;-78
2022/09/01 13:58:55;;;;;;;;;;;;;;;;;;5054423;28;19952;-79
2022/09/01 14:01:21;;;;;;;;;;;;;;;;;;5054112;28;20369;-79
2022/09/01 14:03:47;;;;;;;;;;;;;;;;;;5054055;28;19939;-75
2022/09/01 14:06:13;;;;;;;;;;;;;;;;;;5054442;28;19931;-76
2022/09/01 14:08:39;;;;;;;;;;;;;;;;;;5054351;28;20385;-80
2022/09/01 14:11:05;;;;;;;;;;;;;;;;;;5053958;28;20432;-81
2022/09/01 14:13:31;;;;;;;;;;;;;;;;;;5054064;28;20382;-80
2022/09/01 14:15:57;;;;;;;;;;;;;;;;;;5053864;28;19909;-77
2022/09/01 14:18:35;;;;;;;;;;;;;;;;;;5054070;28;19970;-79
2022/09/01 14:21:02;;;;;;;;;;;;;;;;;;5053992;28;19962;-79
2022/09/01 14:23:28;;;;;;;;;;;;;;;;;;5053621;28;19916;-81
2022/09/01 14:25:54;;;;;;;;;;;;;;;;;;5053857;28;19909;-81
2022/09/01 14:28:20;;;;;;;;;;;;;;;;;;5053637;28;19924;-81
2022/09/01 14:30:45;;;;;;;;;;;;;;;;;;5053890;28;20262;-80
2022/09/01 14:33:11;;;;;;;;;;;;;;;;;;5053650;28;20396;-78
2022/09/01 14:35:37;;;;;;;;;;;;;;;;;;5053650;28;19908;-79
2022/09/01 14:38:07;;;;;;;;;;;;;;;;;;5053775;28;19909;-80
2022/09/01 14:40:35;;;;;;;;;;;;;;;;;;5053506;28;20004;-83